createdAt,value
2018-03-08T00:00:20.601Z,41.93
2018-03-08T00:02:23.049Z,41.13
2018-03-08T00:04:25.558Z,40.37
2018-03-08T00:06:28.129Z,43.73
2018-03-08T00:08:30.673Z,43.90
2018-03-08T00:10:33.168Z,40.67
2018-03-08T00:12:35.658Z,44.03
2018-03-08T00:14:38.152Z,45.13
2018-03-08T00:16:40.638Z,43.37
2018-03-08T00:18:43.143Z,42.97
2018-03-08T00:20:45.668Z,39.57
2018-03-08T00:22:48.146Z,45.50
2018-03-08T00:24:50.634Z,38.30
2018-03-08T00:26:53.140Z,43.20
2018-03-08T00:28:55.589Z,40.80
2018-03-08T00:30:58.063Z,42.40
2018-03-08T00:33:00.688Z,42.83
2018-03-08T00:35:03.129Z,45.17
2018-03-08T00:37:05.650Z,45.23
2018-03-08T00:39:08.169Z,44.90
2018-03-08T00:41:10.661Z,45.53
2018-03-08T00:43:13.153Z,49.37
2018-03-08T00:45:15.605Z,46.70
2018-03-08T00:47:18.103Z,49.27
2018-03-08T00:49:20.638Z,48.07
2018-03-08T00:51:23.154Z,53.07
2018-03-08T00:53:25.618Z,50.40
2018-03-08T00:55:28.118Z,52.50
2018-03-08T00:57:30.575Z,58.10
2018-03-08T00:59:33.019Z,52.13
2018-03-08T01:01:35.519Z,55.90
2018-03-08T01:03:38.023Z,57.90
2018-03-08T01:05:40.449Z,52.67
2018-03-08T01:07:42.956Z,56.07
2018-03-08T01:09:45.459Z,56.30
2018-03-08T01:11:47.934Z,56.27
2018-03-08T01:13:50.551Z,55.93
2018-03-08T01:15:53.026Z,54.20
2018-03-08T01:17:55.535Z,62.47
2018-03-08T01:19:58.027Z,53.80
2018-03-08T01:22:00.459Z,54.97
2018-03-08T01:24:03.018Z,62.77
2018-03-08T01:26:05.611Z,59.80
2018-03-08T01:28:08.100Z,56.73
2018-03-08T01:30:10.520Z,60.23
2018-03-08T01:32:12.998Z,58.70
2018-03-08T01:34:15.431Z,59.57
2018-03-08T01:36:27.631Z,59.97
2018-03-08T01:38:30.184Z,58.53
2018-03-08T01:40:32.684Z,55.90
2018-03-08T01:42:35.248Z,57.33
2018-03-08T01:44:37.696Z,50.50
2018-03-08T01:46:40.161Z,56.53
2018-03-08T01:48:42.755Z,55.17
2018-03-08T01:50:45.225Z,55.73
2018-03-08T01:52:47.689Z,52.87
2018-03-08T01:54:50.149Z,51.97
2018-03-08T01:56:52.640Z,47.20
2018-03-08T01:58:55.121Z,49.30
2018-03-08T02:00:59.286Z,47.17
2018-03-08T02:03:01.765Z,46.30
2018-03-08T02:05:04.203Z,35.13
2018-03-08T02:07:06.834Z,41.70
2018-03-08T02:09:09.270Z,38.13
2018-03-08T02:11:11.714Z,41.07
2018-03-08T02:13:14.196Z,35.30
2018-03-08T02:15:16.704Z,34.87
2018-03-08T02:17:19.405Z,35.70
2018-03-08T02:19:23.529Z,34.47
2018-03-08T02:21:26.921Z,33.67
2018-03-08T02:23:29.419Z,35.23
2018-03-08T02:25:31.861Z,31.50
2018-03-08T02:27:34.324Z,36.73
2018-03-08T02:29:36.768Z,32.77
2018-03-08T02:31:39.244Z,31.27
2018-03-08T02:33:41.710Z,22.47
2018-03-08T02:35:44.190Z,23.00
2018-03-08T02:37:46.791Z,20.10
2018-03-08T02:39:49.229Z,19.00
2018-03-08T02:41:51.771Z,21.70
2018-03-08T02:43:54.270Z,17.47
2018-03-08T02:45:56.737Z,18.10
2018-03-08T02:47:59.192Z,18.47
2018-03-08T02:50:01.752Z,19.77
2018-03-08T02:52:04.250Z,21.63
2018-03-08T02:54:06.722Z,23.50
2018-03-08T02:56:09.182Z,22.23
2018-03-08T02:58:11.696Z,25.30
2018-03-08T03:00:14.171Z,22.83
2018-03-08T03:02:16.606Z,20.13
2018-03-08T03:04:19.095Z,20.23
2018-03-08T03:06:21.607Z,12.07
2018-03-08T03:08:24.100Z,13.93
2018-03-08T03:10:26.676Z,12.50
2018-03-08T03:12:29.146Z,11.77
2018-03-08T03:14:31.665Z,12.80
2018-03-08T03:16:34.160Z,11.00
2018-03-08T03:18:36.645Z,14.27
2018-03-08T03:20:39.102Z,14.27
2018-03-08T03:22:41.631Z,9.30
2018-03-08T03:24:44.157Z,11.27
2018-03-08T03:26:46.727Z,11.73
2018-03-08T03:28:49.202Z,10.27
2018-03-08T03:30:51.675Z,12.50
2018-03-08T03:32:54.205Z,11.40
2018-03-08T03:34:56.694Z,13.23
2018-03-08T03:36:59.190Z,13.17
2018-03-08T03:39:01.626Z,12.07
2018-03-08T03:41:04.052Z,12.80
2018-03-08T03:43:06.502Z,13.20
2018-03-08T03:45:09.033Z,15.50
2018-03-08T03:47:11.490Z,16.40
2018-03-08T03:49:13.927Z,19.37
2018-03-08T03:51:16.427Z,16.23
2018-03-08T03:53:18.881Z,16.97
2018-03-08T03:55:21.328Z,20.27
2018-03-08T03:57:23.813Z,19.30
2018-03-08T03:59:26.243Z,21.20
2018-03-08T04:01:28.802Z,20.50
2018-03-08T04:03:31.293Z,22.67
2018-03-08T04:05:33.786Z,23.20
2018-03-08T04:07:36.257Z,25.53
2018-03-08T04:09:38.775Z,24.70
2018-03-08T04:11:41.316Z,28.27
2018-03-08T04:13:43.865Z,24.93
2018-03-08T04:15:46.352Z,30.47
2018-03-08T04:17:48.862Z,26.47
2018-03-08T04:19:51.346Z,35.63
2018-03-08T04:21:53.807Z,31.67
2018-03-08T04:23:56.232Z,36.47
2018-03-08T04:25:58.838Z,37.93
2018-03-08T04:28:01.273Z,36.63
2018-03-08T04:30:03.811Z,37.50
2018-03-08T04:32:06.303Z,39.20
2018-03-08T04:34:08.762Z,35.70
2018-03-08T04:36:11.304Z,36.73
2018-03-08T04:38:13.730Z,45.83
2018-03-08T04:40:16.276Z,38.53
2018-03-08T04:42:18.762Z,39.57
2018-03-08T04:44:21.234Z,41.40
2018-03-08T04:46:23.692Z,41.40
2018-03-08T04:48:26.242Z,39.47
2018-03-08T04:50:29.436Z,41.90
2018-03-08T04:52:31.851Z,43.90
2018-03-08T04:54:34.271Z,43.83
2018-03-08T04:56:36.833Z,45.60
2018-03-08T04:58:39.323Z,48.70
2018-03-08T05:00:41.818Z,44.07
2018-03-08T05:02:44.307Z,44.73
2018-03-08T05:04:46.765Z,45.53
2018-03-08T05:06:49.305Z,47.20
2018-03-08T05:08:51.772Z,45.73
2018-03-08T05:10:54.284Z,47.80
2018-03-08T05:12:56.718Z,46.00
2018-03-08T05:14:59.201Z,50.50
2018-03-08T05:17:02.413Z,48.00
2018-03-08T05:19:04.868Z,47.80
2018-03-08T05:21:07.368Z,52.60
2018-03-08T05:23:09.930Z,51.70
2018-03-08T05:25:12.451Z,54.13
2018-03-08T05:27:14.917Z,55.83
2018-03-08T05:29:17.477Z,57.23
2018-03-08T05:31:19.907Z,51.63
2018-03-08T05:33:22.423Z,59.53
2018-03-08T05:35:24.913Z,56.40
2018-03-08T05:37:27.407Z,65.27
2018-03-08T05:39:29.957Z,62.90
2018-03-08T05:41:32.404Z,65.00
2018-03-08T05:43:34.974Z,64.10
2018-03-08T05:45:37.441Z,69.97
2018-03-08T05:47:39.982Z,66.07
2018-03-08T05:49:42.513Z,68.83
2018-03-08T05:51:45.019Z,68.80
2018-03-08T05:53:47.516Z,79.90
2018-03-08T05:55:49.950Z,75.50
2018-03-08T05:57:52.451Z,71.10
2018-03-08T05:59:54.941Z,71.53
2018-03-08T06:01:57.431Z,78.57
2018-03-08T06:03:59.924Z,73.70
2018-03-08T06:06:02.482Z,82.60
2018-03-08T06:08:05.018Z,72.13
2018-03-08T06:10:07.430Z,77.43
2018-03-08T06:12:09.882Z,78.63
2018-03-08T06:14:12.497Z,72.87
2018-03-08T06:16:14.984Z,78.63
2018-03-08T06:18:17.581Z,80.50
2018-03-08T06:20:20.109Z,72.70
2018-03-08T06:22:22.682Z,75.57
2018-03-08T06:24:25.166Z,77.33
2018-03-08T06:26:27.633Z,71.13
2018-03-08T06:28:30.157Z,76.23
2018-03-08T06:30:32.669Z,72.10
2018-03-08T06:32:35.177Z,82.67
2018-03-08T06:34:37.730Z,71.20
2018-03-08T06:36:40.244Z,72.73
2018-03-08T06:38:42.717Z,68.23
2018-03-08T06:40:45.167Z,64.53
2018-03-08T06:42:47.684Z,61.13
2018-03-08T06:44:50.124Z,64.63
2018-03-08T06:46:52.623Z,65.40
2018-03-08T06:48:55.057Z,68.80
2018-03-08T06:50:57.675Z,61.50
2018-03-08T06:53:00.125Z,61.70
2018-03-08T06:55:02.609Z,63.43
2018-03-08T06:57:05.077Z,61.67
2018-03-08T06:59:07.558Z,63.83
2018-03-08T07:01:10.000Z,71.30
2018-03-08T07:03:12.500Z,66.77
2018-03-08T07:05:14.989Z,67.27
2018-03-08T07:07:17.512Z,67.50
2018-03-08T07:09:19.969Z,63.90
2018-03-08T07:11:22.503Z,65.20
2018-03-08T07:13:24.989Z,65.23
2018-03-08T07:15:27.429Z,57.90
2018-03-08T07:17:29.988Z,59.30
2018-03-08T07:19:32.443Z,60.87
2018-03-08T07:21:35.175Z,55.40
2018-03-08T07:23:37.589Z,57.33
2018-03-08T07:25:40.070Z,52.47
2018-03-08T07:27:42.644Z,52.20
2018-03-08T07:29:45.083Z,53.90
2018-03-08T07:31:47.639Z,52.60
2018-03-08T07:33:50.130Z,55.60
2018-03-08T07:35:52.547Z,50.20
2018-03-08T07:37:55.050Z,51.47
2018-03-08T07:39:57.560Z,61.63
2018-03-08T07:41:59.978Z,54.63
2018-03-08T07:44:02.460Z,57.17
2018-03-08T07:46:05.909Z,56.13
2018-03-08T07:48:08.356Z,54.07
2018-03-08T07:50:10.850Z,57.27
2018-03-08T07:52:13.265Z,68.47
2018-03-08T07:54:15.775Z,64.93
2018-03-08T07:56:18.271Z,57.80
2018-03-08T07:58:20.775Z,58.63
2018-03-08T08:00:23.312Z,62.10
2018-03-08T08:02:25.973Z,66.37
2018-03-08T08:04:40.529Z,53.13
2018-03-08T08:06:54.996Z,65.40
2018-03-08T08:09:06.364Z,56.17
2018-03-08T08:11:08.841Z,61.13
2018-03-08T08:13:11.374Z,56.60
2018-03-08T08:15:13.875Z,53.87
2018-03-08T08:17:16.465Z,55.27
2018-03-08T08:19:18.959Z,49.47
2018-03-08T08:21:21.449Z,58.43
2018-03-08T08:23:23.999Z,49.00
2018-03-08T08:25:26.540Z,53.73
2018-03-08T08:27:29.054Z,44.13
2018-03-08T08:29:31.728Z,49.50
2018-03-08T08:31:34.227Z,47.40
2018-03-08T08:33:36.679Z,45.10
2018-03-08T08:35:39.131Z,42.90
2018-03-08T08:37:41.691Z,44.20
2018-03-08T08:39:44.197Z,49.83
2018-03-08T08:41:46.698Z,44.30
2018-03-08T08:43:49.176Z,39.20
2018-03-08T08:45:51.621Z,39.13
2018-03-08T08:47:54.165Z,43.50
2018-03-08T08:49:56.766Z,36.70
2018-03-08T08:51:59.201Z,37.07
2018-03-08T08:54:01.749Z,45.53
2018-03-08T08:56:04.344Z,32.93
2018-03-08T08:58:06.841Z,35.83
2018-03-08T09:00:09.285Z,34.97
2018-03-08T09:02:11.924Z,38.10
2018-03-08T09:04:14.361Z,30.93
2018-03-08T09:06:16.884Z,32.40
2018-03-08T09:08:19.344Z,33.27
2018-03-08T09:10:21.857Z,34.33
2018-03-08T09:12:24.492Z,38.80
2018-03-08T09:14:26.981Z,32.40
2018-03-08T09:16:29.586Z,35.13
2018-03-08T09:18:32.100Z,30.00
2018-03-08T09:20:34.572Z,33.13
2018-03-08T09:22:37.171Z,35.43
2018-03-08T09:24:39.666Z,27.47
2018-03-08T09:26:42.150Z,34.63
2018-03-08T09:28:44.666Z,26.60
2018-03-08T09:30:47.221Z,27.57
2018-03-08T09:32:49.734Z,28.73
2018-03-08T09:34:52.322Z,26.60
2018-03-08T09:36:54.795Z,29.93
2018-03-08T09:38:57.311Z,29.73
2018-03-08T09:40:59.746Z,29.87
2018-03-08T09:43:02.297Z,23.70
2018-03-08T09:45:04.765Z,25.03
2018-03-08T09:47:07.282Z,24.90
2018-03-08T09:49:09.894Z,19.07
2018-03-08T09:51:12.375Z,19.60
2018-03-08T09:53:14.861Z,22.20
2018-03-08T09:55:17.360Z,19.70
2018-03-08T09:57:19.801Z,20.20
2018-03-08T09:59:22.320Z,17.70
2018-03-08T10:01:25.545Z,19.60
2018-03-08T10:03:28.050Z,19.07
2018-03-08T10:05:30.582Z,25.27
2018-03-08T10:07:33.140Z,21.30
2018-03-08T10:09:35.631Z,22.10
2018-03-08T10:11:38.126Z,18.53
2018-03-08T10:13:40.621Z,19.00
2018-03-08T10:15:43.124Z,19.87
2018-03-08T10:17:45.702Z,22.00
2018-03-08T10:19:48.197Z,23.43
2018-03-08T10:21:50.696Z,19.00
2018-03-08T10:23:53.154Z,17.30
2018-03-08T10:25:55.642Z,23.80
2018-03-08T10:27:58.122Z,20.33
2018-03-08T10:30:00.666Z,14.63
2018-03-08T10:32:03.133Z,15.10
2018-03-08T10:34:05.622Z,22.03
2018-03-08T10:36:08.099Z,13.07
2018-03-08T10:38:10.636Z,11.73
2018-03-08T10:40:13.063Z,15.43
2018-03-08T10:42:15.502Z,14.17
2018-03-08T10:44:18.094Z,12.87
2018-03-08T10:46:20.573Z,15.10
2018-03-08T10:48:23.026Z,15.13
2018-03-08T10:50:25.530Z,13.17
2018-03-08T10:52:28.005Z,13.63
2018-03-08T10:54:30.455Z,15.33
2018-03-08T10:56:32.966Z,10.03
2018-03-08T10:58:35.481Z,10.50
2018-03-08T11:00:43.447Z,10.33
2018-03-08T11:02:49.725Z,10.87
2018-03-08T11:04:57.784Z,10.83
2018-03-08T11:07:00.377Z,11.73
2018-03-08T11:09:02.894Z,16.23
2018-03-08T11:11:05.313Z,11.33
2018-03-08T11:13:07.737Z,12.33
2018-03-08T11:15:10.249Z,11.37
2018-03-08T11:17:12.718Z,9.83
2018-03-08T11:19:15.183Z,9.30
2018-03-08T11:21:17.730Z,13.07
2018-03-08T11:23:20.216Z,8.97
2018-03-08T11:25:22.671Z,8.97
2018-03-08T11:27:25.112Z,7.57
2018-03-08T11:29:27.591Z,9.20
2018-03-08T11:31:30.087Z,9.03
2018-03-08T11:33:32.571Z,8.87
2018-03-08T11:35:35.073Z,8.60
2018-03-08T11:37:37.567Z,10.63
2018-03-08T11:39:40.056Z,8.80
2018-03-08T11:41:42.659Z,11.67
2018-03-08T11:43:45.086Z,9.00
2018-03-08T11:45:47.589Z,10.17
2018-03-08T11:47:50.016Z,7.33
2018-03-08T11:49:52.533Z,11.40
2018-03-08T11:51:55.048Z,6.70
2018-03-08T11:53:57.553Z,8.70
2018-03-08T11:56:00.003Z,9.63
2018-03-08T11:58:02.498Z,10.20
2018-03-08T12:00:05.003Z,12.53
2018-03-08T12:02:07.585Z,8.17
2018-03-08T12:04:10.051Z,8.03
2018-03-08T12:06:12.547Z,9.60
2018-03-08T12:08:15.069Z,7.07
2018-03-08T12:10:17.663Z,8.30
2018-03-08T12:12:20.168Z,12.43
2018-03-08T12:14:22.596Z,11.40
2018-03-08T12:16:25.113Z,9.43
2018-03-08T12:18:27.533Z,9.00
2018-03-08T12:20:30.044Z,7.57
2018-03-08T12:22:32.517Z,13.60
2018-03-08T12:24:34.971Z,11.57
2018-03-08T12:26:37.481Z,9.03
2018-03-08T12:28:39.998Z,7.13
2018-03-08T12:30:42.593Z,6.20
2018-03-08T12:32:45.158Z,9.30
2018-03-08T12:34:47.682Z,7.80
2018-03-08T12:36:50.151Z,7.57
2018-03-08T12:38:52.675Z,9.10
2018-03-08T12:40:55.191Z,7.87
2018-03-08T12:42:57.662Z,5.83
2018-03-08T12:45:00.084Z,8.87
2018-03-08T12:47:02.647Z,7.90
2018-03-08T12:49:05.092Z,8.33
2018-03-08T12:51:07.627Z,6.73
2018-03-08T12:53:10.119Z,11.73
2018-03-08T12:55:12.613Z,8.07
2018-03-08T12:57:15.110Z,8.07
2018-03-08T12:59:17.598Z,7.67
2018-03-08T13:01:20.093Z,7.40
2018-03-08T13:03:22.589Z,10.07
2018-03-08T13:05:25.083Z,8.90
2018-03-08T13:07:27.674Z,10.60
2018-03-08T13:09:30.174Z,10.47
2018-03-08T13:11:32.674Z,9.53
2018-03-08T13:13:35.154Z,6.40
2018-03-08T13:15:37.594Z,10.33
2018-03-08T13:17:40.143Z,8.53
2018-03-08T13:19:42.593Z,11.87
2018-03-08T13:21:45.229Z,8.90
2018-03-08T13:23:47.795Z,7.70
2018-03-08T13:25:50.236Z,7.13
2018-03-08T13:27:52.710Z,9.13
2018-03-08T13:29:55.177Z,7.97
2018-03-08T13:31:57.672Z,8.13
2018-03-08T13:34:00.289Z,6.40
2018-03-08T13:36:02.794Z,9.47
2018-03-08T13:38:05.243Z,8.00
2018-03-08T13:40:07.879Z,9.37
2018-03-08T13:42:10.328Z,6.00
2018-03-08T13:44:12.786Z,7.80
2018-03-08T13:46:15.345Z,5.80
2018-03-08T13:48:17.767Z,7.73
2018-03-08T13:50:20.290Z,4.87
2018-03-08T13:52:22.779Z,7.60
2018-03-08T13:54:25.233Z,5.83
2018-03-08T13:56:27.771Z,6.47
2018-03-08T13:58:30.224Z,6.10
2018-03-08T14:00:32.707Z,7.10
2018-03-08T14:02:35.190Z,7.53
2018-03-08T14:04:37.793Z,6.57
2018-03-08T14:06:40.227Z,7.73
2018-03-08T14:08:42.718Z,6.73
2018-03-08T14:10:45.187Z,5.67
2018-03-08T14:12:47.719Z,6.77
2018-03-08T14:14:50.158Z,5.37
2018-03-08T14:16:52.604Z,6.17
2018-03-08T14:18:55.242Z,6.40
2018-03-08T14:20:57.740Z,5.13
2018-03-08T14:23:00.250Z,6.30
2018-03-08T14:25:02.805Z,8.00
2018-03-08T14:27:05.320Z,6.53
2018-03-08T14:29:07.785Z,6.30
2018-03-08T14:31:10.339Z,5.10
2018-03-08T14:33:12.797Z,9.27
2018-03-08T14:35:15.281Z,6.83
2018-03-08T14:37:17.760Z,6.27
2018-03-08T14:39:20.276Z,6.17
2018-03-08T14:41:22.751Z,6.50
2018-03-08T14:43:25.261Z,7.43
2018-03-08T14:45:27.751Z,7.87
2018-03-08T14:47:30.249Z,9.70
2018-03-08T14:49:32.844Z,4.40
2018-03-08T14:51:35.439Z,6.80
2018-03-08T14:53:37.874Z,3.80
2018-03-08T14:55:40.361Z,4.77
2018-03-08T14:57:42.954Z,5.07
2018-03-08T14:59:45.400Z,5.60
2018-03-08T15:01:48.004Z,6.17
2018-03-08T15:03:50.516Z,4.80
2018-03-08T15:05:53.013Z,9.97
2018-03-08T15:07:55.587Z,7.80
2018-03-08T15:09:58.185Z,4.40
2018-03-08T15:12:00.641Z,5.40
2018-03-08T15:14:03.134Z,8.30
2018-03-08T15:16:05.608Z,6.03
2018-03-08T15:18:08.060Z,4.87
2018-03-08T15:20:10.650Z,4.37
2018-03-08T15:22:13.080Z,4.73
2018-03-08T15:24:15.549Z,6.57
2018-03-08T15:26:18.047Z,5.90
2018-03-08T15:28:20.624Z,7.53
2018-03-08T15:30:23.186Z,4.20
2018-03-08T15:32:25.636Z,6.97
2018-03-08T15:34:28.205Z,6.10
2018-03-08T15:36:30.650Z,6.00
2018-03-08T15:38:33.158Z,5.67
2018-03-08T15:40:35.706Z,4.30
2018-03-08T15:42:38.179Z,5.20
2018-03-08T15:44:40.669Z,5.40
2018-03-08T15:46:43.202Z,5.63
2018-03-08T15:48:45.754Z,5.90
2018-03-08T15:50:48.356Z,6.63
2018-03-08T15:52:50.846Z,6.20
2018-03-08T15:54:53.545Z,7.10
2018-03-08T15:56:56.046Z,5.10
2018-03-08T15:58:58.526Z,5.80
2018-03-08T16:01:01.049Z,5.63
2018-03-08T16:03:03.550Z,6.80
2018-03-08T16:05:06.008Z,4.73
2018-03-08T16:10:21.415Z,3.73
2018-03-08T16:12:23.999Z,5.77
2018-03-08T16:14:26.589Z,5.70
2018-03-08T16:16:29.085Z,5.60
2018-03-08T16:18:31.569Z,5.00
2018-03-08T16:20:34.075Z,8.57
2018-03-08T16:22:36.565Z,5.33
2018-03-08T16:24:39.159Z,6.80
2018-03-08T16:26:41.751Z,7.00
2018-03-08T16:28:44.236Z,5.00
2018-03-08T16:30:46.742Z,6.53
2018-03-08T16:32:49.274Z,4.63
2018-03-08T16:34:51.752Z,5.50
2018-03-08T16:36:54.426Z,10.63
2018-03-08T16:38:57.020Z,7.03
2018-03-08T16:40:59.520Z,6.73
2018-03-08T16:43:02.110Z,10.13
2018-03-08T16:45:04.581Z,5.37
2018-03-08T16:47:07.198Z,9.87
2018-03-08T16:49:09.705Z,7.90
2018-03-08T16:51:12.285Z,6.80
2018-03-08T16:53:14.762Z,5.50
2018-03-08T16:55:17.378Z,6.80
2018-03-08T16:57:19.970Z,6.77
2018-03-08T16:59:22.446Z,6.20
2018-03-08T17:01:24.955Z,8.13
2018-03-08T17:03:27.440Z,5.90
2018-03-08T17:05:29.946Z,9.10
2018-03-08T17:07:32.463Z,5.33
2018-03-08T17:09:34.901Z,6.40
2018-03-08T17:11:37.430Z,4.37
2018-03-08T17:13:39.891Z,5.57
2018-03-08T17:15:42.437Z,5.93
2018-03-08T17:17:45.002Z,6.83
2018-03-08T17:19:47.511Z,4.77
2018-03-08T17:21:49.963Z,6.00
2018-03-08T17:23:52.477Z,7.77
2018-03-08T17:25:55.017Z,7.93
2018-03-08T17:27:57.573Z,11.00
2018-03-08T17:30:00.122Z,7.43
2018-03-08T17:32:02.641Z,5.87
2018-03-08T17:34:05.222Z,10.30
2018-03-08T17:36:07.705Z,8.00
2018-03-08T17:38:10.166Z,6.43
2018-03-08T17:40:12.653Z,8.97
2018-03-08T17:42:15.186Z,12.30
2018-03-08T17:44:17.722Z,9.27
2018-03-08T17:46:20.187Z,9.30
2018-03-08T17:48:22.722Z,14.70
2018-03-08T17:50:25.200Z,8.27
2018-03-08T17:52:27.670Z,12.17
2018-03-08T17:54:30.335Z,9.83
2018-03-08T17:56:32.682Z,11.20
2018-03-08T17:58:35.272Z,9.67
2018-03-08T18:00:37.750Z,10.47
2018-03-08T18:02:40.302Z,4.90
2018-03-08T18:04:42.862Z,3.20
2018-03-08T18:06:45.306Z,3.67
2018-03-08T18:08:47.851Z,2.60
2018-03-08T18:10:50.442Z,2.73
2018-03-08T18:12:53.016Z,3.10
2018-03-08T18:14:55.510Z,2.23
2018-03-08T18:16:58.016Z,2.40
2018-03-08T18:19:00.512Z,2.33
2018-03-08T18:21:02.971Z,3.20
2018-03-08T18:23:05.599Z,4.70
2018-03-08T18:25:08.196Z,2.70
2018-03-08T18:27:10.996Z,2.60
2018-03-08T18:29:13.433Z,3.27
2018-03-08T18:31:16.019Z,3.00
2018-03-08T18:33:18.537Z,2.63
2018-03-08T18:35:21.172Z,2.90
2018-03-08T18:37:23.633Z,4.00
2018-03-08T18:39:26.257Z,2.40
2018-03-08T18:41:28.786Z,3.10
2018-03-08T18:43:31.316Z,2.40
2018-03-08T18:45:33.826Z,2.70
2018-03-08T18:47:36.322Z,2.80
2018-03-08T18:49:38.812Z,2.83
2018-03-08T18:51:41.323Z,6.70
2018-03-08T18:53:43.813Z,3.43
2018-03-08T18:55:46.311Z,4.17
2018-03-08T18:57:48.779Z,3.13
2018-03-08T18:59:51.367Z,7.03
2018-03-08T19:01:53.824Z,3.80
2018-03-08T19:03:56.352Z,4.87
2018-03-08T19:05:58.797Z,3.50
2018-03-08T19:08:01.368Z,3.00
2018-03-08T19:10:03.846Z,3.60
2018-03-08T19:12:06.451Z,4.70
2018-03-08T19:14:08.908Z,3.90
2018-03-08T19:16:11.446Z,5.60
2018-03-08T19:18:14.043Z,7.53
2018-03-08T19:20:16.548Z,6.17
2018-03-08T19:22:19.240Z,6.50
2018-03-08T19:24:21.704Z,7.57
2018-03-08T19:26:24.222Z,7.00
2018-03-08T19:28:26.775Z,7.47
2018-03-08T19:30:29.281Z,10.63
2018-03-08T19:32:31.879Z,6.87
2018-03-08T19:34:34.383Z,7.77
2018-03-08T19:36:37.001Z,10.03
2018-03-08T19:38:39.592Z,9.23
2018-03-08T19:40:42.098Z,8.50
2018-03-08T19:42:44.603Z,8.40
2018-03-08T19:44:47.112Z,10.30
2018-03-08T19:46:49.655Z,12.43
2018-03-08T19:48:52.098Z,11.20
2018-03-08T19:50:54.747Z,11.13
2018-03-08T19:52:57.254Z,12.20
2018-03-08T19:54:59.837Z,14.23
2018-03-08T19:57:02.352Z,12.77
2018-03-08T19:59:04.927Z,13.07
2018-03-08T20:01:07.530Z,15.07
2018-03-08T20:03:10.095Z,21.83
2018-03-08T20:05:12.603Z,13.70
2018-03-08T20:07:15.209Z,13.20
2018-03-08T20:09:17.820Z,12.30
2018-03-08T20:11:20.394Z,11.77
2018-03-08T20:13:23.089Z,9.33
2018-03-08T20:15:25.588Z,12.20
2018-03-08T20:17:28.069Z,9.77
2018-03-08T20:19:30.974Z,8.90
2018-03-08T20:21:33.479Z,8.73
2018-03-08T20:23:35.954Z,9.00
2018-03-08T20:25:38.464Z,9.83
2018-03-08T20:27:40.907Z,7.27
2018-03-08T20:29:43.388Z,6.90
2018-03-08T20:31:45.869Z,5.20
2018-03-08T20:33:48.335Z,8.70
2018-03-08T20:35:50.830Z,5.43
2018-03-08T20:37:53.318Z,6.73
2018-03-08T20:39:55.763Z,5.27
2018-03-08T20:41:58.283Z,8.03
2018-03-08T20:44:00.748Z,5.03
2018-03-08T20:46:03.307Z,4.97
2018-03-08T20:48:05.995Z,5.33
2018-03-08T20:50:08.450Z,6.27
2018-03-08T20:52:10.983Z,7.83
2018-03-08T20:54:13.520Z,6.33
2018-03-08T20:56:16.093Z,8.57
2018-03-08T20:58:18.549Z,10.87
2018-03-08T21:00:21.154Z,9.70
2018-03-08T21:02:23.762Z,10.13
2018-03-08T21:04:26.344Z,8.10
2018-03-08T21:06:28.833Z,11.43
2018-03-08T21:08:31.435Z,13.83
2018-03-08T21:10:33.962Z,11.83
2018-03-08T21:12:36.517Z,11.90
2018-03-08T21:14:39.028Z,15.27
2018-03-08T21:16:41.603Z,11.87
2018-03-08T21:18:44.104Z,14.73
2018-03-08T21:20:46.526Z,13.60
2018-03-08T21:22:49.188Z,13.10
2018-03-08T21:24:51.654Z,13.30
2018-03-08T21:26:54.097Z,14.60
2018-03-08T21:28:56.584Z,13.83
2018-03-08T21:30:59.040Z,15.77
2018-03-08T21:33:01.655Z,11.57
2018-03-08T21:35:04.107Z,13.93
2018-03-08T21:37:06.569Z,17.77
2018-03-08T21:39:09.959Z,16.57
2018-03-08T21:41:12.454Z,14.53
2018-03-08T21:43:14.948Z,16.13
2018-03-08T21:45:17.420Z,15.67
2018-03-08T21:47:19.896Z,18.23
2018-03-08T21:49:22.399Z,15.30
2018-03-08T21:51:24.909Z,16.57
2018-03-08T21:53:27.500Z,16.87
2018-03-08T21:55:29.991Z,17.50
2018-03-08T21:57:32.530Z,16.03
2018-03-08T21:59:35.088Z,18.80
2018-03-08T22:01:37.516Z,17.00
2018-03-08T22:03:40.010Z,17.47
2018-03-08T22:05:42.468Z,16.37
2018-03-08T22:07:44.965Z,17.80
2018-03-08T22:09:47.465Z,17.90
2018-03-08T22:11:49.986Z,17.03
2018-03-08T22:13:52.564Z,17.90
2018-03-08T22:15:55.036Z,15.27
2018-03-08T22:17:57.502Z,17.17
2018-03-08T22:19:59.996Z,19.97
2018-03-08T22:22:02.455Z,17.10
2018-03-08T22:24:04.955Z,18.93
2018-03-08T22:26:07.466Z,20.07
2018-03-08T22:28:09.925Z,20.70
2018-03-08T22:30:12.485Z,17.23
2018-03-08T22:32:14.974Z,17.33
2018-03-08T22:34:17.397Z,18.40
2018-03-08T22:36:19.875Z,23.57
2018-03-08T22:38:22.441Z,23.43
2018-03-08T22:40:24.926Z,21.70
2018-03-08T22:42:27.451Z,18.23
2018-03-08T22:44:29.977Z,19.57
2018-03-08T22:46:32.529Z,20.30
2018-03-08T22:48:34.970Z,18.43
2018-03-08T22:50:37.517Z,18.33
2018-03-08T22:52:40.010Z,21.63
2018-03-08T22:54:42.482Z,22.70
2018-03-08T22:56:45.003Z,22.77
2018-03-08T22:58:47.470Z,20.00
2018-03-08T23:00:49.958Z,22.23
2018-03-08T23:05:29.247Z,21.37
2018-03-08T23:07:31.710Z,18.60
2018-03-08T23:09:34.180Z,17.23
2018-03-08T23:11:36.689Z,19.57
2018-03-08T23:13:39.161Z,18.20
2018-03-08T23:15:41.694Z,19.00
2018-03-08T23:17:44.139Z,16.33
2018-03-08T23:19:46.697Z,16.50
2018-03-08T23:21:49.221Z,14.00
2018-03-08T23:23:51.719Z,17.03
2018-03-08T23:25:54.287Z,14.77
2018-03-08T23:27:56.733Z,14.30
2018-03-08T23:29:59.167Z,12.53
2018-03-08T23:32:01.652Z,19.93
2018-03-08T23:34:04.151Z,13.13
2018-03-08T23:36:06.620Z,13.03
2018-03-08T23:38:09.082Z,12.77
2018-03-08T23:40:11.555Z,13.10
2018-03-08T23:42:14.121Z,18.30
2018-03-08T23:44:16.551Z,13.97
2018-03-08T23:46:19.021Z,17.53
2018-03-08T23:48:21.545Z,17.33
2018-03-08T23:50:24.018Z,14.97
2018-03-08T23:52:26.511Z,18.23
2018-03-08T23:54:28.956Z,16.00
2018-03-08T23:56:31.481Z,17.23
2018-03-08T23:58:33.966Z,19.57
